Impacts TAF Board
For situational awareness. Not to be used for flight planning purposes.
IDs:

KTLH - Tallahassee Intl, FL, US

Issued at 1740 UTC 07 Dec 2021
Updated at 1849 UTC 07 Dec 2021
Potential Impact None Slight Moderate High
Time1814Z 07/19Z 07/20Z 07/21Z 07/22Z 07/23Z 08/00Z 08/01Z 08/02Z 08/03Z 08/04Z 08/05Z 08/06Z 08/07Z>>
Type OBS PRVL PRVL PRVL PRVL PRVL PRVL PRVL PRVL PRVL PRVL PRVL PRVL PRVL
VIS 10 >6 >6 >6 >6 >6 >6 >6 >6 2 2 2 0.5 0.5
CIG 19 25 25 25 25 25 70 70 70 3 3 3 2 2
Cover OVC OVC OVC OVC OVC OVC BKN BKN BKN OVC OVC OVC OVC OVC
FltCat MVFR MVFR MVFR MVFR MVFR MVFR VFR VFR VFR LIFR LIFR LIFR LIFR LIFR
WX -- -- -- -- -- -- -- -- -- BR BR BR FG VCSH FG VCSH
WDir VRB 60 60 60 60 60 VRB VRB VRB VRB VRB VRB VRB VRB
WSpd 0 2 2 2 2 2 2 2 2 0 0 0 0 0
WGst -- -- -- -- -- -- -- -- -- -- -- -- -- --
WSHgt -- -- -- -- -- -- -- -- -- -- -- -- -- --
WSDir -- -- -- -- -- -- -- -- -- -- -- -- -- --
WSSpd -- -- -- -- -- -- -- -- -- -- -- -- -- --
Raw TAF
KTLH 071740Z 0718/0818 06002KT P6SM OVC025
  FM080000 VRB02KT P6SM BKN070
  FM080300 00000KT 2SM BR OVC003
  FM080600 00000KT 1/2SM FG VCSH OVC002
  FM081400 25006KT 5SM BR BKN006


Raw METAR
KTLH 071814Z 00000KT 10SM BKN019 OVC029 21/17 A3008 RMK AO2 T02060167
KTLH 071753Z 00000KT 10SM FEW031 BKN100 21/17 A3009 RMK AO2 SLP189 T02060167 10206 20133 58015
KTLH 071653Z 00000KT 10SM FEW009 FEW027 BKN048 19/16 A3012 RMK AO2 SLP199 T01890161
KTLH 071553Z 03005KT 10SM SCT004 OVC046 17/16 A3014 RMK AO2 SLP204 T01720161

METAR Board
Radar Display
Forecast Discussion
For situational awareness. Not to be used for flight planning purposes.